Glendora, Michigan
Current Conditions -  °F | °C
As of 8:54 PM on Sunday 21 Dec 2014 (Local Time) from KSBN Reporting Station
Scattered Clouds Scattered Clouds  
Wind Chill: 25°   Ceiling: Unl
Heat Index: 33°   Visibility: 7mi
Dew Point: 26°   Wind: 10mph
Humidity: 75%   Direction: 150°SSE
Pressure: 30.13"   Gusts: NA
Location:  41.8486°N, 86.4165°W
Report Text: KSBN 220154Z 15009KT 7SM SCT075 01/M03 A3013 RMK AO2 SLP210 T00061033
Loading
Personal Weather Stations






























Interactive Weather Map New forecast layout! Learn more

10-Day Weather Forecast

Advertisements
Track Severe Weather on mobile